sensor_id;sensor_type;location;lat;lon;timestamp;temperature;humidity
53264;DHT22;39153;52.680;6.172;2022-12-07T00:01:07;4.00;99.90
53264;DHT22;39153;52.680;6.172;2022-12-07T00:03:34;4.00;99.90
53264;DHT22;39153;52.680;6.172;2022-12-07T00:06:01;4.10;99.90
53264;DHT22;39153;52.680;6.172;2022-12-07T00:08:27;3.50;99.90
53264;DHT22;39153;52.680;6.172;2022-12-07T00:10:53;4.10;99.90
53264;DHT22;39153;52.680;6.172;2022-12-07T00:13:19;3.90;99.90
53264;DHT22;39153;52.680;6.172;2022-12-07T00:15:45;3.50;99.90
53264;DHT22;39153;52.680;6.172;2022-12-07T00:18:10;4.00;99.90
53264;DHT22;39153;52.680;6.172;2022-12-07T00:20:36;3.50;99.90
53264;DHT22;39153;52.680;6.172;2022-12-07T00:23:02;3.80;99.90
53264;DHT22;39153;52.680;6.172;2022-12-07T00:25:28;3.80;99.90
53264;DHT22;39153;52.680;6.172;2022-12-07T00:27:55;3.90;99.90
53264;DHT22;39153;52.680;6.172;2022-12-07T00:30:22;3.90;99.90
53264;DHT22;39153;52.680;6.172;2022-12-07T00:32:48;3.70;99.90
53264;DHT22;39153;52.680;6.172;2022-12-07T00:35:14;3.60;99.90
53264;DHT22;39153;52.680;6.172;2022-12-07T00:37:40;3.80;99.90
53264;DHT22;39153;52.680;6.172;2022-12-07T00:40:06;4.10;99.90
53264;DHT22;39153;52.680;6.172;2022-12-07T00:42:32;3.70;99.90
53264;DHT22;39153;52.680;6.172;2022-12-07T00:44:58;4.10;99.90
53264;DHT22;39153;52.680;6.172;2022-12-07T00:47:23;4.00;99.90
53264;DHT22;39153;52.680;6.172;2022-12-07T00:49:49;4.00;99.90
53264;DHT22;39153;52.680;6.172;2022-12-07T00:52:15;3.80;99.90
53264;DHT22;39153;52.680;6.172;2022-12-07T00:54:40;3.80;99.90
53264;DHT22;39153;52.680;6.172;2022-12-07T00:57:06;4.00;99.90
53264;DHT22;39153;52.680;6.172;2022-12-07T00:59:32;4.00;99.90
53264;DHT22;39153;52.680;6.172;2022-12-07T01:01:58;4.00;99.90
53264;DHT22;39153;52.680;6.172;2022-12-07T01:04:23;3.90;99.90
53264;DHT22;39153;52.680;6.172;2022-12-07T01:06:49;3.80;99.90
53264;DHT22;39153;52.680;6.172;2022-12-07T01:09:15;3.50;99.90
53264;DHT22;39153;52.680;6.172;2022-12-07T01:11:40;3.60;99.90
53264;DHT22;39153;52.680;6.172;2022-12-07T01:14:06;3.60;99.90
53264;DHT22;39153;52.680;6.172;2022-12-07T01:16:32;3.80;99.90
53264;DHT22;39153;52.680;6.172;2022-12-07T01:18:59;3.50;99.90
53264;DHT22;39153;52.680;6.172;2022-12-07T01:21:28;3.70;99.90
53264;DHT22;39153;52.680;6.172;2022-12-07T01:23:54;3.30;99.90
53264;DHT22;39153;52.680;6.172;2022-12-07T01:26:23;3.70;99.90
53264;DHT22;39153;52.680;6.172;2022-12-07T01:28:49;3.40;99.90
53264;DHT22;39153;52.680;6.172;2022-12-07T01:31:19;3.50;99.90
53264;DHT22;39153;52.680;6.172;2022-12-07T01:33:47;3.50;99.90
53264;DHT22;39153;52.680;6.172;2022-12-07T01:36:19;3.50;99.90
53264;DHT22;39153;52.680;6.172;2022-12-07T01:38:47;3.50;99.90
53264;DHT22;39153;52.680;6.172;2022-12-07T01:41:13;3.40;99.90
53264;DHT22;39153;52.680;6.172;2022-12-07T01:46:51;3.30;99.90
53264;DHT22;39153;52.680;6.172;2022-12-07T01:49:25;3.20;99.90
53264;DHT22;39153;52.680;6.172;2022-12-07T01:51:54;3.30;99.90
53264;DHT22;39153;52.680;6.172;2022-12-07T01:54:22;3.50;99.90
53264;DHT22;39153;52.680;6.172;2022-12-07T01:56:51;3.40;99.90
53264;DHT22;39153;52.680;6.172;2022-12-07T01:59:20;3.30;99.90
53264;DHT22;39153;52.680;6.172;2022-12-07T02:01:47;3.30;99.90
53264;DHT22;39153;52.680;6.172;2022-12-07T02:04:12;3.30;99.90
53264;DHT22;39153;52.680;6.172;2022-12-07T02:06:39;3.10;99.90
53264;DHT22;39153;52.680;6.172;2022-12-07T02:09:07;3.20;99.90
53264;DHT22;39153;52.680;6.172;2022-12-07T02:11:33;3.00;99.90
53264;DHT22;39153;52.680;6.172;2022-12-07T02:13:59;3.10;99.90
53264;DHT22;39153;52.680;6.172;2022-12-07T02:16:59;3.20;99.90
53264;DHT22;39153;52.680;6.172;2022-12-07T02:25:41;3.10;99.90
53264;DHT22;39153;52.680;6.172;2022-12-07T02:28:22;3.20;99.90
53264;DHT22;39153;52.680;6.172;2022-12-07T02:30:54;3.30;99.90
53264;DHT22;39153;52.680;6.172;2022-12-07T02:33:31;3.00;99.90
53264;DHT22;39153;52.680;6.172;2022-12-07T02:36:01;3.30;99.90
53264;DHT22;39153;52.680;6.172;2022-12-07T02:38:38;3.30;99.90
53264;DHT22;39153;52.680;6.172;2022-12-07T02:41:32;3.60;99.90
53264;DHT22;39153;52.680;6.172;2022-12-07T02:44:01;3.40;99.90
53264;DHT22;39153;52.680;6.172;2022-12-07T02:46:31;3.50;99.90
53264;DHT22;39153;52.680;6.172;2022-12-07T02:48:59;3.50;99.90
53264;DHT22;39153;52.680;6.172;2022-12-07T02:51:29;3.50;99.90
53264;DHT22;39153;52.680;6.172;2022-12-07T02:53:54;3.60;99.90
53264;DHT22;39153;52.680;6.172;2022-12-07T02:56:40;3.50;99.90
53264;DHT22;39153;52.680;6.172;2022-12-07T03:07:41;3.40;99.90
53264;DHT22;39153;52.680;6.172;2022-12-07T03:10:34;3.20;99.90
53264;DHT22;39153;52.680;6.172;2022-12-07T03:13:04;3.30;99.90
53264;DHT22;39153;52.680;6.172;2022-12-07T03:16:25;3.50;99.90
53264;DHT22;39153;52.680;6.172;2022-12-07T03:18:55;3.20;99.90
53264;DHT22;39153;52.680;6.172;2022-12-07T03:21:32;3.20;99.90
53264;DHT22;39153;52.680;6.172;2022-12-07T03:24:03;3.20;99.90
53264;DHT22;39153;52.680;6.172;2022-12-07T03:26:34;3.10;99.90
53264;DHT22;39153;52.680;6.172;2022-12-07T03:29:07;3.30;99.90
53264;DHT22;39153;52.680;6.172;2022-12-07T03:31:43;3.40;99.90
53264;DHT22;39153;52.680;6.172;2022-12-07T03:34:18;3.10;99.90
53264;DHT22;39153;52.680;6.172;2022-12-07T03:36:57;3.50;99.90
53264;DHT22;39153;52.680;6.172;2022-12-07T03:41:59;3.40;99.90
53264;DHT22;39153;52.680;6.172;2022-12-07T03:44:26;3.30;99.90
53264;DHT22;39153;52.680;6.172;2022-12-07T03:49:40;3.30;99.90
53264;DHT22;39153;52.680;6.172;2022-12-07T03:52:18;3.00;99.90
53264;DHT22;39153;52.680;6.172;2022-12-07T03:55:00;3.10;99.90
53264;DHT22;39153;52.680;6.172;2022-12-07T03:57:28;3.30;99.90
53264;DHT22;39153;52.680;6.172;2022-12-07T03:59:56;3.10;99.90
53264;DHT22;39153;52.680;6.172;2022-12-07T04:02:24;3.40;99.90
53264;DHT22;39153;52.680;6.172;2022-12-07T04:04:50;3.20;99.90
53264;DHT22;39153;52.680;6.172;2022-12-07T04:07:16;3.20;99.90
53264;DHT22;39153;52.680;6.172;2022-12-07T04:09:42;3.40;99.90
53264;DHT22;39153;52.680;6.172;2022-12-07T04:12:07;3.20;99.90
53264;DHT22;39153;52.680;6.172;2022-12-07T04:14:33;3.10;99.90
53264;DHT22;39153;52.680;6.172;2022-12-07T04:16:59;3.20;99.90
53264;DHT22;39153;52.680;6.172;2022-12-07T04:19:30;3.20;99.90
53264;DHT22;39153;52.680;6.172;2022-12-07T04:21:58;3.30;99.90
53264;DHT22;39153;52.680;6.172;2022-12-07T04:24:24;3.00;99.90
53264;DHT22;39153;52.680;6.172;2022-12-07T04:26:50;3.50;99.90
53264;DHT22;39153;52.680;6.172;2022-12-07T04:29:16;3.10;99.90
53264;DHT22;39153;52.680;6.172;2022-12-07T04:31:42;2.80;99.90
53264;DHT22;39153;52.680;6.172;2022-12-07T04:34:09;3.00;99.90
53264;DHT22;39153;52.680;6.172;2022-12-07T04:36:35;2.90;99.90
53264;DHT22;39153;52.680;6.172;2022-12-07T04:39:03;3.00;99.90
53264;DHT22;39153;52.680;6.172;2022-12-07T04:41:29;1.60;99.90
53264;DHT22;39153;52.680;6.172;2022-12-07T04:44:00;3.10;99.90
53264;DHT22;39153;52.680;6.172;2022-12-07T04:46:28;3.10;99.90
53264;DHT22;39153;52.680;6.172;2022-12-07T04:48:54;3.30;99.90
53264;DHT22;39153;52.680;6.172;2022-12-07T04:51:23;3.00;99.90
53264;DHT22;39153;52.680;6.172;2022-12-07T04:53:49;2.80;99.90
53264;DHT22;39153;52.680;6.172;2022-12-07T04:56:16;2.80;99.90
53264;DHT22;39153;52.680;6.172;2022-12-07T04:58:42;3.10;99.90
53264;DHT22;39153;52.680;6.172;2022-12-07T05:01:08;2.80;99.90
53264;DHT22;39153;52.680;6.172;2022-12-07T05:03:36;3.10;99.90
53264;DHT22;39153;52.680;6.172;2022-12-07T05:06:01;3.00;99.90
53264;DHT22;39153;52.680;6.172;2022-12-07T05:08:27;3.00;99.90
53264;DHT22;39153;52.680;6.172;2022-12-07T05:10:53;3.30;99.90
53264;DHT22;39153;52.680;6.172;2022-12-07T05:13:18;3.10;99.90
53264;DHT22;39153;52.680;6.172;2022-12-07T05:15:44;3.10;99.90
53264;DHT22;39153;52.680;6.172;2022-12-07T05:18:11;3.20;99.90
53264;DHT22;39153;52.680;6.172;2022-12-07T05:20:41;3.00;99.90
53264;DHT22;39153;52.680;6.172;2022-12-07T05:23:07;3.00;99.90
53264;DHT22;39153;52.680;6.172;2022-12-07T05:25:33;3.20;99.90
53264;DHT22;39153;52.680;6.172;2022-12-07T05:27:59;3.10;99.90
53264;DHT22;39153;52.680;6.172;2022-12-07T05:30:25;3.00;99.90
53264;DHT22;39153;52.680;6.172;2022-12-07T05:32:51;3.20;99.90
53264;DHT22;39153;52.680;6.172;2022-12-07T05:35:18;2.80;99.90
53264;DHT22;39153;52.680;6.172;2022-12-07T05:37:44;3.10;99.90
53264;DHT22;39153;52.680;6.172;2022-12-07T05:40:10;3.10;99.90
53264;DHT22;39153;52.680;6.172;2022-12-07T05:42:36;2.80;99.90
53264;DHT22;39153;52.680;6.172;2022-12-07T05:45:03;3.00;99.90
53264;DHT22;39153;52.680;6.172;2022-12-07T05:47:29;2.80;99.90
53264;DHT22;39153;52.680;6.172;2022-12-07T05:49:54;2.90;99.90
53264;DHT22;39153;52.680;6.172;2022-12-07T05:52:20;4.20;99.90
53264;DHT22;39153;52.680;6.172;2022-12-07T05:54:46;2.90;99.90
53264;DHT22;39153;52.680;6.172;2022-12-07T05:57:12;2.80;99.90
53264;DHT22;39153;52.680;6.172;2022-12-07T05:59:37;2.80;99.90
53264;DHT22;39153;52.680;6.172;2022-12-07T06:02:09;2.80;99.90
53264;DHT22;39153;52.680;6.172;2022-12-07T06:04:43;2.90;99.90
53264;DHT22;39153;52.680;6.172;2022-12-07T06:07:11;3.10;99.90
53264;DHT22;39153;52.680;6.172;2022-12-07T06:09:37;3.40;99.90
53264;DHT22;39153;52.680;6.172;2022-12-07T06:12:03;2.90;99.90
53264;DHT22;39153;52.680;6.172;2022-12-07T06:14:47;3.30;99.90
53264;DHT22;39153;52.680;6.172;2022-12-07T06:17:14;3.40;99.90
53264;DHT22;39153;52.680;6.172;2022-12-07T06:19:40;3.30;99.90
53264;DHT22;39153;52.680;6.172;2022-12-07T06:22:06;3.40;99.90
53264;DHT22;39153;52.680;6.172;2022-12-07T06:24:33;3.20;99.90
53264;DHT22;39153;52.680;6.172;2022-12-07T06:26:59;3.40;99.90
53264;DHT22;39153;52.680;6.172;2022-12-07T06:29:24;3.30;99.90
53264;DHT22;39153;52.680;6.172;2022-12-07T06:31:50;3.30;99.90
53264;DHT22;39153;52.680;6.172;2022-12-07T06:34:18;3.20;99.90
53264;DHT22;39153;52.680;6.172;2022-12-07T06:36:44;3.20;99.90
53264;DHT22;39153;52.680;6.172;2022-12-07T06:39:11;3.30;99.90
53264;DHT22;39153;52.680;6.172;2022-12-07T06:41:38;3.30;99.90
53264;DHT22;39153;52.680;6.172;2022-12-07T06:44:05;3.30;99.90
53264;DHT22;39153;52.680;6.172;2022-12-07T06:46:31;3.20;99.90
53264;DHT22;39153;52.680;6.172;2022-12-07T06:48:57;3.20;99.90
53264;DHT22;39153;52.680;6.172;2022-12-07T06:51:22;2.90;99.90
53264;DHT22;39153;52.680;6.172;2022-12-07T06:53:48;2.90;99.90
53264;DHT22;39153;52.680;6.172;2022-12-07T06:56:14;2.60;99.90
53264;DHT22;39153;52.680;6.172;2022-12-07T06:58:40;2.70;99.90
53264;DHT22;39153;52.680;6.172;2022-12-07T07:01:13;2.50;99.90
53264;DHT22;39153;52.680;6.172;2022-12-07T07:03:39;2.50;99.90
53264;DHT22;39153;52.680;6.172;2022-12-07T07:06:06;2.50;99.90
53264;DHT22;39153;52.680;6.172;2022-12-07T07:08:33;2.70;99.90
53264;DHT22;39153;52.680;6.172;2022-12-07T07:10:59;2.40;99.90
53264;DHT22;39153;52.680;6.172;2022-12-07T07:13:25;2.40;99.90
53264;DHT22;39153;52.680;6.172;2022-12-07T07:15:51;2.40;99.90
53264;DHT22;39153;52.680;6.172;2022-12-07T07:18:16;2.40;99.90
53264;DHT22;39153;52.680;6.172;2022-12-07T07:20:42;2.20;99.90
53264;DHT22;39153;52.680;6.172;2022-12-07T07:23:08;2.20;99.90
53264;DHT22;39153;52.680;6.172;2022-12-07T07:25:33;2.20;99.90
53264;DHT22;39153;52.680;6.172;2022-12-07T07:27:59;2.10;99.90
53264;DHT22;39153;52.680;6.172;2022-12-07T07:30:25;2.30;99.90
53264;DHT22;39153;52.680;6.172;2022-12-07T07:32:51;2.10;99.90
53264;DHT22;39153;52.680;6.172;2022-12-07T07:35:17;2.40;99.90
53264;DHT22;39153;52.680;6.172;2022-12-07T07:37:42;2.30;99.90
53264;DHT22;39153;52.680;6.172;2022-12-07T07:40:09;2.50;99.90
53264;DHT22;39153;52.680;6.172;2022-12-07T07:42:35;2.00;99.90
53264;DHT22;39153;52.680;6.172;2022-12-07T07:45:01;2.40;99.90
53264;DHT22;39153;52.680;6.172;2022-12-07T07:47:27;2.30;99.90
53264;DHT22;39153;52.680;6.172;2022-12-07T07:49:54;2.40;99.90
53264;DHT22;39153;52.680;6.172;2022-12-07T07:52:20;2.20;99.90
53264;DHT22;39153;52.680;6.172;2022-12-07T07:54:45;2.40;99.90
53264;DHT22;39153;52.680;6.172;2022-12-07T07:57:11;2.10;99.90
53264;DHT22;39153;52.680;6.172;2022-12-07T07:59:36;2.10;99.90
53264;DHT22;39153;52.680;6.172;2022-12-07T08:02:02;2.30;99.90
53264;DHT22;39153;52.680;6.172;2022-12-07T08:04:28;2.50;99.90
53264;DHT22;39153;52.680;6.172;2022-12-07T08:06:53;2.30;99.90
53264;DHT22;39153;52.680;6.172;2022-12-07T08:09:19;2.50;99.90
53264;DHT22;39153;52.680;6.172;2022-12-07T08:11:45;2.60;99.90
53264;DHT22;39153;52.680;6.172;2022-12-07T08:14:11;2.30;99.90
53264;DHT22;39153;52.680;6.172;2022-12-07T08:16:37;2.60;99.90
53264;DHT22;39153;52.680;6.172;2022-12-07T08:19:04;2.60;99.90
53264;DHT22;39153;52.680;6.172;2022-12-07T08:21:30;2.60;99.90
53264;DHT22;39153;52.680;6.172;2022-12-07T08:23:57;2.40;99.90
53264;DHT22;39153;52.680;6.172;2022-12-07T08:26:23;2.30;99.90
53264;DHT22;39153;52.680;6.172;2022-12-07T08:28:48;2.60;99.90
53264;DHT22;39153;52.680;6.172;2022-12-07T08:31:17;2.60;99.90
53264;DHT22;39153;52.680;6.172;2022-12-07T08:33:45;2.90;99.90
53264;DHT22;39153;52.680;6.172;2022-12-07T08:36:12;3.20;99.90
53264;DHT22;39153;52.680;6.172;2022-12-07T08:38:39;2.90;99.90
53264;DHT22;39153;52.680;6.172;2022-12-07T08:41:07;2.70;99.90
53264;DHT22;39153;52.680;6.172;2022-12-07T08:43:33;2.70;99.90
53264;DHT22;39153;52.680;6.172;2022-12-07T08:49:05;2.90;99.90
53264;DHT22;39153;52.680;6.172;2022-12-07T08:51:32;3.00;99.90
53264;DHT22;39153;52.680;6.172;2022-12-07T08:54:01;3.00;99.90
53264;DHT22;39153;52.680;6.172;2022-12-07T08:56:28;3.10;99.90
53264;DHT22;39153;52.680;6.172;2022-12-07T08:58:54;2.80;99.90
53264;DHT22;39153;52.680;6.172;2022-12-07T09:01:20;2.80;99.90
53264;DHT22;39153;52.680;6.172;2022-12-07T09:03:45;3.10;99.90
53264;DHT22;39153;52.680;6.172;2022-12-07T09:06:11;2.90;99.90
53264;DHT22;39153;52.680;6.172;2022-12-07T09:08:42;3.00;99.90
53264;DHT22;39153;52.680;6.172;2022-12-07T09:11:11;3.40;99.90
53264;DHT22;39153;52.680;6.172;2022-12-07T09:13:36;3.00;99.90
53264;DHT22;39153;52.680;6.172;2022-12-07T09:16:02;3.10;99.90
53264;DHT22;39153;52.680;6.172;2022-12-07T09:18:28;3.40;99.90
53264;DHT22;39153;52.680;6.172;2022-12-07T09:20:54;3.40;99.90
53264;DHT22;39153;52.680;6.172;2022-12-07T09:23:19;3.30;99.90
53264;DHT22;39153;52.680;6.172;2022-12-07T09:25:45;3.40;99.90
53264;DHT22;39153;52.680;6.172;2022-12-07T09:28:11;4.20;99.90
53264;DHT22;39153;52.680;6.172;2022-12-07T09:30:36;3.90;99.90
53264;DHT22;39153;52.680;6.172;2022-12-07T09:33:02;3.90;99.90
53264;DHT22;39153;52.680;6.172;2022-12-07T09:35:28;3.90;99.90
53264;DHT22;39153;52.680;6.172;2022-12-07T09:37:54;4.10;99.90
53264;DHT22;39153;52.680;6.172;2022-12-07T09:40:21;4.20;99.90
53264;DHT22;39153;52.680;6.172;2022-12-07T09:42:49;4.20;99.90
53264;DHT22;39153;52.680;6.172;2022-12-07T09:45:46;4.40;99.90
53264;DHT22;39153;52.680;6.172;2022-12-07T09:48:21;4.60;99.90
53264;DHT22;39153;52.680;6.172;2022-12-07T09:50:49;4.70;99.90
53264;DHT22;39153;52.680;6.172;2022-12-07T09:53:37;4.80;99.90
53264;DHT22;39153;52.680;6.172;2022-12-07T09:56:04;4.70;99.90
53264;DHT22;39153;52.680;6.172;2022-12-07T09:58:31;4.80;99.90
53264;DHT22;39153;52.680;6.172;2022-12-07T10:01:18;4.80;99.90
53264;DHT22;39153;52.680;6.172;2022-12-07T10:03:51;4.90;99.90
53264;DHT22;39153;52.680;6.172;2022-12-07T10:06:17;5.00;99.90
53264;DHT22;39153;52.680;6.172;2022-12-07T10:08:43;5.10;99.90
53264;DHT22;39153;52.680;6.172;2022-12-07T10:11:09;5.10;99.90
53264;DHT22;39153;52.680;6.172;2022-12-07T10:13:40;5.10;99.90
53264;DHT22;39153;52.680;6.172;2022-12-07T10:16:18;5.30;99.90
53264;DHT22;39153;52.680;6.172;2022-12-07T10:18:53;4.70;99.90
53264;DHT22;39153;52.680;6.172;2022-12-07T10:21:26;5.80;99.90
53264;DHT22;39153;52.680;6.172;2022-12-07T10:24:13;6.00;99.90
53264;DHT22;39153;52.680;6.172;2022-12-07T10:31:43;6.80;99.90
53264;DHT22;39153;52.680;6.172;2022-12-07T10:34:34;6.90;99.90
53264;DHT22;39153;52.680;6.172;2022-12-07T10:39:44;7.30;99.90
53264;DHT22;39153;52.680;6.172;2022-12-07T10:44:43;7.80;99.90
53264;DHT22;39153;52.680;6.172;2022-12-07T10:47:29;7.70;99.90
53264;DHT22;39153;52.680;6.172;2022-12-07T10:55:27;7.30;99.90
53264;DHT22;39153;52.680;6.172;2022-12-07T11:00:25;7.10;99.90
53264;DHT22;39153;52.680;6.172;2022-12-07T11:08:47;6.50;99.90
53264;DHT22;39153;52.680;6.172;2022-12-07T11:11:24;6.30;99.90
53264;DHT22;39153;52.680;6.172;2022-12-07T11:16:52;6.10;99.90
53264;DHT22;39153;52.680;6.172;2022-12-07T11:30:23;6.00;99.90
53264;DHT22;39153;52.680;6.172;2022-12-07T11:33:36;6.00;99.90
53264;DHT22;39153;52.680;6.172;2022-12-07T11:36:37;5.90;99.90
53264;DHT22;39153;52.680;6.172;2022-12-07T11:42:22;6.00;99.90
53264;DHT22;39153;52.680;6.172;2022-12-07T11:45:04;5.90;99.90
53264;DHT22;39153;52.680;6.172;2022-12-07T11:47:48;5.90;99.90
53264;DHT22;39153;52.680;6.172;2022-12-07T12:01:44;6.00;99.90
53264;DHT22;39153;52.680;6.172;2022-12-07T12:06:43;6.20;99.90
53264;DHT22;39153;52.680;6.172;2022-12-07T12:09:16;5.90;99.90
53264;DHT22;39153;52.680;6.172;2022-12-07T12:12:18;5.90;99.90
53264;DHT22;39153;52.680;6.172;2022-12-07T12:14:54;6.00;99.90
53264;DHT22;39153;52.680;6.172;2022-12-07T12:20:37;6.00;99.90
53264;DHT22;39153;52.680;6.172;2022-12-07T12:25:48;6.40;99.90
53264;DHT22;39153;52.680;6.172;2022-12-07T12:28:28;6.40;99.90
53264;DHT22;39153;52.680;6.172;2022-12-07T12:34:01;6.90;99.90
53264;DHT22;39153;52.680;6.172;2022-12-07T12:47:02;6.70;99.90
53264;DHT22;39153;52.680;6.172;2022-12-07T12:49:35;6.70;99.90
53264;DHT22;39153;52.680;6.172;2022-12-07T12:54:35;6.70;99.90
53264;DHT22;39153;52.680;6.172;2022-12-07T12:57:14;6.70;99.90
53264;DHT22;39153;52.680;6.172;2022-12-07T13:05:00;6.40;99.90
53264;DHT22;39153;52.680;6.172;2022-12-07T13:15:46;6.10;99.90
53264;DHT22;39153;52.680;6.172;2022-12-07T13:33:55;5.70;99.90
53264;DHT22;39153;52.680;6.172;2022-12-07T13:36:23;5.60;99.90
53264;DHT22;39153;52.680;6.172;2022-12-07T13:39:10;5.70;99.90
53264;DHT22;39153;52.680;6.172;2022-12-07T13:41:36;5.60;99.90
53264;DHT22;39153;52.680;6.172;2022-12-07T13:44:11;5.60;99.90
53264;DHT22;39153;52.680;6.172;2022-12-07T13:49:49;5.50;99.90
53264;DHT22;39153;52.680;6.172;2022-12-07T13:52:27;5.50;99.90
53264;DHT22;39153;52.680;6.172;2022-12-07T13:57:33;5.50;99.90
53264;DHT22;39153;52.680;6.172;2022-12-07T14:00:02;5.50;99.90
53264;DHT22;39153;52.680;6.172;2022-12-07T14:02:30;5.40;99.90
53264;DHT22;39153;52.680;6.172;2022-12-07T14:05:16;5.40;99.90
53264;DHT22;39153;52.680;6.172;2022-12-07T14:08:02;5.40;99.90
53264;DHT22;39153;52.680;6.172;2022-12-07T14:10:32;5.40;99.90
53264;DHT22;39153;52.680;6.172;2022-12-07T14:13:00;5.40;99.90
53264;DHT22;39153;52.680;6.172;2022-12-07T14:15:29;5.30;99.90
53264;DHT22;39153;52.680;6.172;2022-12-07T14:17:56;5.30;99.90
53264;DHT22;39153;52.680;6.172;2022-12-07T14:20:52;5.30;99.90
53264;DHT22;39153;52.680;6.172;2022-12-07T14:23:27;5.30;99.90
53264;DHT22;39153;52.680;6.172;2022-12-07T14:25:53;5.30;99.90
53264;DHT22;39153;52.680;6.172;2022-12-07T14:28:27;5.30;99.90
53264;DHT22;39153;52.680;6.172;2022-12-07T14:30:53;5.30;99.90
53264;DHT22;39153;52.680;6.172;2022-12-07T14:33:19;5.20;99.90
53264;DHT22;39153;52.680;6.172;2022-12-07T14:35:46;5.20;99.90
53264;DHT22;39153;52.680;6.172;2022-12-07T14:38:11;5.20;99.90
53264;DHT22;39153;52.680;6.172;2022-12-07T14:40:38;5.20;99.90
53264;DHT22;39153;52.680;6.172;2022-12-07T14:43:12;5.10;99.90
53264;DHT22;39153;52.680;6.172;2022-12-07T14:45:40;5.10;99.90
53264;DHT22;39153;52.680;6.172;2022-12-07T14:48:07;5.10;99.90
53264;DHT22;39153;52.680;6.172;2022-12-07T14:50:37;5.00;99.90
53264;DHT22;39153;52.680;6.172;2022-12-07T14:53:14;5.00;99.90
53264;DHT22;39153;52.680;6.172;2022-12-07T14:55:40;5.00;99.90
53264;DHT22;39153;52.680;6.172;2022-12-07T14:58:05;4.90;99.90
53264;DHT22;39153;52.680;6.172;2022-12-07T15:00:31;4.90;99.90
53264;DHT22;39153;52.680;6.172;2022-12-07T15:02:57;4.90;99.90
53264;DHT22;39153;52.680;6.172;2022-12-07T15:05:23;4.80;99.90
53264;DHT22;39153;52.680;6.172;2022-12-07T15:07:49;4.80;99.90
53264;DHT22;39153;52.680;6.172;2022-12-07T15:10:21;5.20;99.90
53264;DHT22;39153;52.680;6.172;2022-12-07T15:12:47;4.80;99.90
53264;DHT22;39153;52.680;6.172;2022-12-07T15:15:13;5.10;99.90
53264;DHT22;39153;52.680;6.172;2022-12-07T15:17:39;4.80;99.90
53264;DHT22;39153;52.680;6.172;2022-12-07T15:20:08;4.70;99.90
53264;DHT22;39153;52.680;6.172;2022-12-07T15:22:34;4.70;99.90
53264;DHT22;39153;52.680;6.172;2022-12-07T15:25:00;4.70;99.90
53264;DHT22;39153;52.680;6.172;2022-12-07T15:27:27;4.90;99.90
53264;DHT22;39153;52.680;6.172;2022-12-07T15:29:52;4.70;99.90
53264;DHT22;39153;52.680;6.172;2022-12-07T15:32:19;4.70;99.90
53264;DHT22;39153;52.680;6.172;2022-12-07T15:34:44;4.60;99.90
53264;DHT22;39153;52.680;6.172;2022-12-07T15:37:10;4.60;99.90
53264;DHT22;39153;52.680;6.172;2022-12-07T15:39:37;4.60;99.90
53264;DHT22;39153;52.680;6.172;2022-12-07T15:42:03;4.50;99.90
53264;DHT22;39153;52.680;6.172;2022-12-07T15:44:28;4.40;99.90
53264;DHT22;39153;52.680;6.172;2022-12-07T15:47:12;4.40;99.90
53264;DHT22;39153;52.680;6.172;2022-12-07T15:49:38;4.30;99.90
53264;DHT22;39153;52.680;6.172;2022-12-07T15:52:04;4.40;99.90
53264;DHT22;39153;52.680;6.172;2022-12-07T15:54:30;4.30;99.90
53264;DHT22;39153;52.680;6.172;2022-12-07T15:56:57;4.30;99.90
53264;DHT22;39153;52.680;6.172;2022-12-07T15:59:23;4.20;99.90
53264;DHT22;39153;52.680;6.172;2022-12-07T16:01:51;5.30;99.90
53264;DHT22;39153;52.680;6.172;2022-12-07T16:04:16;4.20;99.90
53264;DHT22;39153;52.680;6.172;2022-12-07T16:06:42;4.20;99.90
53264;DHT22;39153;52.680;6.172;2022-12-07T16:09:08;4.20;99.90
53264;DHT22;39153;52.680;6.172;2022-12-07T16:11:34;4.20;99.90
53264;DHT22;39153;52.680;6.172;2022-12-07T16:13:59;4.20;99.90
53264;DHT22;39153;52.680;6.172;2022-12-07T16:16:25;4.20;99.90
53264;DHT22;39153;52.680;6.172;2022-12-07T16:18:51;4.20;99.90
53264;DHT22;39153;52.680;6.172;2022-12-07T16:21:17;4.20;99.90
53264;DHT22;39153;52.680;6.172;2022-12-07T16:23:44;4.10;99.90
53264;DHT22;39153;52.680;6.172;2022-12-07T16:26:14;4.10;99.90
53264;DHT22;39153;52.680;6.172;2022-12-07T16:28:40;4.00;99.90
53264;DHT22;39153;52.680;6.172;2022-12-07T16:31:14;4.00;99.90
53264;DHT22;39153;52.680;6.172;2022-12-07T16:33:42;4.00;99.90
53264;DHT22;39153;52.680;6.172;2022-12-07T16:36:10;4.00;99.90
53264;DHT22;39153;52.680;6.172;2022-12-07T16:38:37;4.00;99.90
53264;DHT22;39153;52.680;6.172;2022-12-07T16:41:04;3.90;99.90
53264;DHT22;39153;52.680;6.172;2022-12-07T16:43:30;3.80;99.90
53264;DHT22;39153;52.680;6.172;2022-12-07T16:45:56;3.70;99.90
53264;DHT22;39153;52.680;6.172;2022-12-07T16:48:22;3.80;99.90
53264;DHT22;39153;52.680;6.172;2022-12-07T16:50:48;3.80;99.90
53264;DHT22;39153;52.680;6.172;2022-12-07T16:53:14;3.70;99.90
53264;DHT22;39153;52.680;6.172;2022-12-07T16:55:44;3.80;99.90
53264;DHT22;39153;52.680;6.172;2022-12-07T16:58:14;3.80;99.90
53264;DHT22;39153;52.680;6.172;2022-12-07T17:00:41;4.00;99.90
53264;DHT22;39153;52.680;6.172;2022-12-07T17:03:07;3.70;99.90
53264;DHT22;39153;52.680;6.172;2022-12-07T17:05:33;3.80;99.90
53264;DHT22;39153;52.680;6.172;2022-12-07T17:07:59;3.60;99.90
53264;DHT22;39153;52.680;6.172;2022-12-07T17:10:25;3.60;99.90
53264;DHT22;39153;52.680;6.172;2022-12-07T17:12:51;3.50;99.90
53264;DHT22;39153;52.680;6.172;2022-12-07T17:15:17;3.50;99.90
53264;DHT22;39153;52.680;6.172;2022-12-07T17:17:55;4.30;99.90
53264;DHT22;39153;52.680;6.172;2022-12-07T17:20:23;3.50;99.90
53264;DHT22;39153;52.680;6.172;2022-12-07T17:22:49;3.50;99.90
53264;DHT22;39153;52.680;6.172;2022-12-07T17:25:16;3.50;99.90
53264;DHT22;39153;52.680;6.172;2022-12-07T17:27:42;3.80;99.90
53264;DHT22;39153;52.680;6.172;2022-12-07T17:30:08;3.50;99.90
53264;DHT22;39153;52.680;6.172;2022-12-07T17:32:34;3.40;99.90
53264;DHT22;39153;52.680;6.172;2022-12-07T17:35:00;3.50;99.90
53264;DHT22;39153;52.680;6.172;2022-12-07T17:37:26;3.40;99.90
53264;DHT22;39153;52.680;6.172;2022-12-07T17:39:52;3.40;99.90
53264;DHT22;39153;52.680;6.172;2022-12-07T17:42:21;3.50;99.90
53264;DHT22;39153;52.680;6.172;2022-12-07T17:45:04;3.30;99.90
53264;DHT22;39153;52.680;6.172;2022-12-07T17:47:30;3.30;99.90
53264;DHT22;39153;52.680;6.172;2022-12-07T17:49:56;3.30;99.90
53264;DHT22;39153;52.680;6.172;2022-12-07T17:52:22;3.50;99.90
53264;DHT22;39153;52.680;6.172;2022-12-07T17:55:06;3.30;99.90
53264;DHT22;39153;52.680;6.172;2022-12-07T17:57:32;3.30;99.90
53264;DHT22;39153;52.680;6.172;2022-12-07T17:59:58;3.30;99.90
53264;DHT22;39153;52.680;6.172;2022-12-07T18:02:23;3.20;99.90
53264;DHT22;39153;52.680;6.172;2022-12-07T18:04:49;3.30;99.90
53264;DHT22;39153;52.680;6.172;2022-12-07T18:07:15;3.20;99.90
53264;DHT22;39153;52.680;6.172;2022-12-07T18:09:40;3.10;99.90
53264;DHT22;39153;52.680;6.172;2022-12-07T18:12:07;3.20;99.90
53264;DHT22;39153;52.680;6.172;2022-12-07T18:14:33;3.30;99.90